Time;durP1;ratioP1;P1;durP2;ratioP2;P2;SDS_P1;SDS_P2;PMS_P1;PMS_P2;Temp;Humidity;BMP_temperature;BMP_pressure;BME280_temperature;BME280_humidity;BME280_pressure;Samples;Min_cycle;Max_cycle;Signal;HPM_P1;HPM_P2
2022/05/13 00:02:11;;;;;;;;;;;;;;;12.91;62.31;101834.75;5055952;28;20120;-35
2022/05/13 00:04:38;;;;;;;6.05;1.30;;;;;;;12.67;64.81;101837.25;5054893;28;19955;-35
2022/05/13 00:07:04;;;;;;;5.07;1.33;;;;;;;12.68;65.06;101843.50;5055131;28;20033;-34
2022/05/13 00:12:14;;;;;;;5.05;1.48;;;;;;;12.67;65.18;101834.53;5054887;28;20064;-35
2022/05/13 00:14:41;;;;;;;4.28;1.35;;;;;;;12.70;65.46;101844.13;5054618;28;20060;-35
2022/05/13 00:17:07;;;;;;;6.22;1.48;;;;;;;12.61;66.00;101838.97;5054846;28;20064;-34
2022/05/13 00:19:32;;;;;;;7.75;1.63;;;;;;;12.46;66.06;101835.75;5054994;28;20048;-35
2022/05/13 00:21:58;;;;;;;4.70;1.60;;;;;;;12.28;66.89;101824.78;5055036;28;20416;-35
2022/05/13 00:24:24;;;;;;;5.38;1.60;;;;;;;12.39;66.76;101832.22;5054703;28;20029;-35
2022/05/13 00:26:49;;;;;;;6.07;2.00;;;;;;;12.38;66.69;101828.69;5054456;28;20476;-35
2022/05/13 00:29:15;;;;;;;6.03;1.40;;;;;;;12.18;67.63;101838.84;5054445;28;20113;-34
2022/05/13 00:31:42;;;;;;;9.27;1.55;;;;;;;12.29;67.25;101838.13;5054102;28;20029;-35
2022/05/13 00:34:07;;;;;;;7.07;1.95;;;;;;;12.18;67.46;101835.28;5054504;28;20029;-34
2022/05/13 00:36:32;;;;;;;6.78;1.77;;;;;;;12.14;67.72;101828.63;5054316;28;20060;-34
2022/05/13 00:38:58;;;;;;;5.63;1.63;;;;;;;12.04;68.37;101824.50;5054189;28;20021;-35
2022/05/13 00:41:23;;;;;;;7.43;1.87;;;;;;;12.05;68.11;101842.47;5054712;28;20037;-34
2022/05/13 00:43:51;;;;;;;7.55;1.80;;;;;;;12.13;67.68;101837.81;5053875;28;20271;-34
2022/05/13 00:46:18;;;;;;;6.18;2.15;;;;;;;12.14;67.41;101834.06;5053998;28;20118;-34
2022/05/13 00:48:45;;;;;;;5.85;1.63;;;;;;;12.00;68.06;101838.72;5054759;28;20107;-34
2022/05/13 00:51:12;;;;;;;6.72;1.90;;;;;;;12.03;68.38;101838.28;5054240;28;20025;-34
2022/05/13 00:53:38;;;;;;;5.03;1.85;;;;;;;12.05;67.91;101836.19;5053902;28;20052;-34
2022/05/13 00:56:05;;;;;;;7.20;1.70;;;;;;;11.99;67.92;101824.34;5053762;28;20067;-34
2022/05/13 00:58:33;;;;;;;4.47;1.60;;;;;;;12.01;67.86;101824.97;5054207;28;20040;-34
2022/05/13 01:00:58;;;;;;;7.57;1.48;;;;;;;12.04;68.01;101829.94;5053600;28;20483;-34
2022/05/13 01:03:24;;;;;;;7.17;1.90;;;;;;;12.00;67.97;101839.53;5053447;28;20033;-34
2022/05/13 01:05:55;;;;;;;6.75;1.80;;;;;;;11.91;68.38;101834.59;5053939;28;20576;-34
2022/05/13 01:08:21;;;;;;;5.22;1.60;;;;;;;11.75;68.63;101816.91;5053730;28;20075;-34
2022/05/13 01:10:47;;;;;;;5.80;1.95;;;;;;;11.85;68.01;101823.56;5053093;28;20038;-34
2022/05/13 01:13:22;;;;;;;4.25;1.50;;;;;;;11.83;68.40;101822.97;5053692;28;20051;-35
2022/05/13 01:15:49;;;;;;;7.80;1.98;;;;;;;11.87;68.53;101827.97;5053538;28;20040;-34
2022/05/13 01:18:28;;;;;;;5.60;2.03;;;;;;;11.70;69.82;101824.84;5053106;28;20037;-34
2022/05/13 01:20:54;;;;;;;7.82;2.00;;;;;;;11.69;69.37;101825.91;5053652;28;20029;-34
2022/05/13 01:23:22;;;;;;;5.22;2.00;;;;;;;11.72;69.93;101825.50;5053209;28;20469;-34
2022/05/13 01:25:51;;;;;;;6.32;2.05;;;;;;;11.66;69.47;101810.06;5053071;28;20362;-34
2022/05/13 01:28:29;;;;;;;8.63;2.28;;;;;;;11.75;69.36;101825.88;5053281;28;20056;-34
2022/05/13 01:30:58;;;;;;;5.07;2.03;;;;;;;11.69;70.68;101815.06;5053304;28;20017;-34
2022/05/13 01:33:24;;;;;;;6.35;2.08;;;;;;;11.64;69.98;101817.59;5053203;28;20060;-34
2022/05/13 01:35:51;;;;;;;;;;;;;;;11.72;68.71;101826.31;5053781;28;20425;-34
2022/05/13 01:38:18;;;;;;;;;;;;;;;11.70;67.82;101822.16;5053778;28;19908;-34
2022/05/13 01:40:43;;;;;;;7.80;2.30;;;;;;;11.50;70.32;101823.03;5053591;28;19923;-34
2022/05/13 01:43:09;;;;;;;4.60;1.70;;;;;;;11.41;71.26;101821.59;5052794;28;20442;-34
2022/05/13 01:45:34;;;;;;;7.47;1.90;;;;;;;11.41;70.93;101824.31;5053247;28;20219;-34
2022/05/13 01:48:01;;;;;;;4.45;1.75;;;;;;;11.49;70.99;101834.09;5052618;28;20036;-34
2022/05/13 01:50:27;;;;;;;7.82;1.85;;;;;;;11.41;71.32;101832.44;5053106;28;20161;-34
2022/05/13 01:52:56;;;;;;;6.88;1.95;;;;;;;11.45;70.92;101830.97;5052880;28;20025;-34
2022/05/13 01:55:22;;;;;;;6.45;1.90;;;;;;;11.36;70.33;101816.00;5052871;28;20055;-34
2022/05/13 01:57:48;;;;;;;4.18;1.50;;;;;;;11.45;70.40;101820.16;5052828;28;20450;-34
2022/05/13 02:00:14;;;;;;;5.45;1.90;;;;;;;11.45;69.98;101824.72;5053317;28;20108;-34
2022/05/13 02:05:24;;;;;;;6.82;1.92;;;;;;;11.48;70.44;101829.75;5052987;28;20087;-34
2022/05/13 02:07:51;;;;;;;5.32;1.70;;;;;;;11.48;70.03;101830.56;5053379;28;20136;-34
2022/05/13 02:10:17;;;;;;;6.80;2.17;;;;;;;11.48;70.27;101822.44;5052196;28;20462;-34
2022/05/13 02:12:42;;;;;;;6.47;1.95;;;;;;;11.40;70.17;101827.25;5052478;28;20048;-34
2022/05/13 02:15:08;;;;;;;5.75;1.95;;;;;;;11.43;70.26;101827.66;5052325;28;20099;-34
2022/05/13 02:17:34;;;;;;;6.68;1.98;;;;;;;11.32;70.25;101806.63;5052898;28;20037;-35
2022/05/13 02:19:59;;;;;;;6.00;1.70;;;;;;;11.28;70.31;101808.97;5052635;28;20029;-34
2022/05/13 02:22:24;;;;;;;5.97;1.90;;;;;;;11.25;70.45;101801.25;5052852;28;20056;-34
2022/05/13 02:24:50;;;;;;;6.67;1.83;;;;;;;11.26;70.41;101821.03;5052944;28;20032;-34
2022/05/13 02:27:16;;;;;;;7.40;2.38;;;;;;;11.23;70.66;101821.47;5052493;28;20302;-34
2022/05/13 02:29:41;;;;;;;4.97;1.95;;;;;;;11.20;70.94;101821.88;5052754;28;20078;-34
2022/05/13 02:32:07;;;;;;;8.03;1.90;;;;;;;11.28;71.03;101829.78;5052863;28;20402;-34
2022/05/13 02:34:36;;;;;;;5.22;2.10;;;;;;;11.29;70.61;101826.84;5052345;28;20032;-34
2022/05/13 02:37:01;;;;;;;6.13;1.70;;;;;;;11.30;70.80;101816.84;5052608;28;20036;-34
2022/05/13 02:39:27;;;;;;;5.93;1.95;;;;;;;11.19;71.21;101798.56;5052372;28;20017;-34
2022/05/13 02:41:52;;;;;;;5.77;2.33;;;;;;;11.31;71.63;101819.34;5052445;28;20029;-34
2022/05/13 02:44:18;;;;;;;9.20;2.17;;;;;;;11.35;71.26;101826.00;5052634;28;20461;-34
2022/05/13 02:46:43;;;;;;;4.88;1.83;;;;;;;11.30;71.36;101823.09;5052148;28;20032;-34
2022/05/13 02:49:08;;;;;;;4.77;2.43;;;;;;;11.36;71.70;101821.41;5052325;28;20037;-34
2022/05/13 02:51:34;;;;;;;8.90;2.13;;;;;;;11.21;72.82;101820.84;5052338;28;20052;-34
2022/05/13 02:53:59;;;;;;;9.63;2.67;;;;;;;11.28;72.54;101824.38;5052559;28;20040;-34
2022/05/13 02:56:25;;;;;;;7.55;2.42;;;;;;;11.21;73.03;101820.84;5052881;28;20087;-34
2022/05/13 02:58:50;;;;;;;11.77;2.60;;;;;;;11.20;72.96;101832.72;5052203;28;20033;-34
2022/05/13 03:01:18;;;;;;;8.13;2.30;;;;;;;11.24;72.78;101813.13;5052404;28;20025;-34
2022/05/13 03:03:46;;;;;;;6.00;2.50;;;;;;;11.22;73.42;101808.94;5052194;28;20032;-34
2022/05/13 03:06:12;;;;;;;5.53;2.13;;;;;;;11.34;73.04;101820.81;5052950;28;20166;-34
2022/05/13 03:08:37;;;;;;;8.15;2.47;;;;;;;11.35;73.47;101819.75;5052101;28;20103;-34
2022/05/13 03:11:04;;;;;;;6.68;2.33;;;;;;;11.38;73.02;101813.94;5052334;28;20453;-34
2022/05/13 03:13:30;;;;;;;7.65;2.60;;;;;;;11.32;73.06;101809.34;5052080;28;20021;-34
2022/05/13 03:16:01;;;;;;;8.60;2.92;;;;;;;11.34;73.05;101805.41;5052344;28;20025;-34
2022/05/13 03:18:27;;;;;;;6.82;2.35;;;;;;;11.33;73.49;101813.75;5051799;28;20108;-34
2022/05/13 03:20:52;;;;;;;7.18;2.58;;;;;;;11.31;73.71;101802.28;5052156;28;20087;-34
2022/05/13 03:23:17;;;;;;;8.60;2.47;;;;;;;11.36;74.08;101810.59;5052348;28;20032;-34
2022/05/13 03:25:43;;;;;;;6.23;2.13;;;;;;;11.30;74.44;101796.03;5052097;28;20457;-34
2022/05/13 03:28:10;;;;;;;7.37;2.33;;;;;;;11.32;74.31;101806.63;5051662;28;20029;-34
2022/05/13 03:30:36;;;;;;;7.90;2.83;;;;;;;11.25;74.56;101800.41;5050680;28;20135;-34
2022/05/13 03:33:01;;;;;;;12.40;2.58;;;;;;;11.22;74.87;101801.66;5051922;28;20104;-34
2022/05/13 03:35:27;;;;;;;7.35;2.53;;;;;;;11.15;75.37;101811.69;5054339;28;20422;-34
2022/05/13 03:37:52;;;;;;;7.07;2.17;;;;;;;11.05;75.38;101798.59;5055449;28;20025;-34
2022/05/13 03:40:18;;;;;;;6.43;2.30;;;;;;;11.09;75.44;101816.06;5055222;28;20347;-34
2022/05/13 03:42:44;;;;;;;12.00;2.60;;;;;;;11.09;75.64;101816.06;5055206;28;20066;-34
2022/05/13 03:45:11;;;;;;;9.32;2.70;;;;;;;11.00;76.39;101811.91;5055286;28;20270;-34
2022/05/13 03:47:36;;;;;;;8.38;2.70;;;;;;;11.03;76.35;101813.38;5055037;28;20021;-34
2022/05/13 03:50:04;;;;;;;8.63;2.85;;;;;;;10.93;76.50;101797.56;5055258;28;20058;-35
2022/05/13 03:52:30;;;;;;;9.63;2.60;;;;;;;11.05;76.46;101809.41;5055144;28;20079;-34
2022/05/13 03:54:55;;;;;;;8.13;2.63;;;;;;;11.02;76.88;101815.22;5055076;28;20041;-34
2022/05/13 03:57:21;;;;;;;9.50;2.78;;;;;;;11.04;76.58;101810.47;5055213;28;20154;-34
2022/05/13 03:59:46;;;;;;;10.97;2.97;;;;;;;11.08;76.72;101819.81;5054989;28;20117;-34
2022/05/13 04:02:12;;;;;;;7.53;2.37;;;;;;;10.97;76.55;101798.78;5055060;28;20028;-34
2022/05/13 04:10:07;;;;;;;9.43;2.80;;;;;;;11.04;77.17;101817.75;5055625;28;20094;-34
2022/05/13 04:18:01;;;;;;;11.10;3.50;;;;;;;11.03;78.28;101819.63;5055155;28;20055;-34
2022/05/13 04:20:27;;;;;;;7.57;2.63;;;;;;;10.99;78.32;101815.66;5054339;28;20036;-34
2022/05/13 04:22:52;;;;;;;14.52;3.25;;;;;;;11.03;78.42;101806.09;5054658;28;20037;-34
2022/05/13 04:25:17;;;;;;;9.23;3.17;;;;;;;10.96;78.61;101812.53;5054522;28;20053;-34
2022/05/13 04:27:43;;;;;;;9.32;2.97;;;;;;;10.90;79.27;101803.41;5055023;28;20033;-34
2022/05/13 04:30:09;;;;;;;9.32;3.50;;;;;;;10.97;78.93;101814.19;5054891;28;20033;-34
2022/05/13 04:32:34;;;;;;;;;;;;;;;11.10;77.67;101816.91;5054506;28;20434;-34
2022/05/13 04:34:59;;;;;;;8.83;3.10;;;;;;;10.90;79.23;101808.81;5054114;28;19919;-34
2022/05/13 04:37:25;;;;;;;9.73;3.67;;;;;;;11.05;79.57;101831.06;5054396;28;20054;-34
2022/05/13 04:39:53;;;;;;;8.53;3.23;;;;;;;11.00;79.49;101821.91;5054218;28;20025;-34
2022/05/13 04:45:04;;;;;;;13.32;3.70;;;;;;;11.13;78.60;101843.56;5054507;28;20124;-35
2022/05/13 04:50:13;;;;;;;7.30;3.15;;;;;;;11.08;79.13;101830.66;5053879;28;20044;-34
2022/05/13 04:52:38;;;;;;;10.15;3.35;;;;;;;11.29;79.13;101848.53;5054145;28;20025;-34
2022/05/13 04:55:04;;;;;;;12.37;3.80;;;;;;;11.31;78.27;101841.00;5054047;28;20068;-34
2022/05/13 04:57:29;;;;;;;10.48;3.35;;;;;;;11.37;78.59;101827.66;5054018;28;20342;-34
2022/05/13 04:59:54;;;;;;;9.30;3.63;;;;;;;11.50;78.40;101854.72;5053686;28;20094;-34
2022/05/13 05:02:20;;;;;;;12.87;3.77;;;;;;;11.52;78.14;101863.47;5054193;28;20036;-34
2022/05/13 05:04:45;;;;;;;8.30;3.37;;;;;;;11.54;78.35;101867.63;5053768;28;20041;-34
2022/05/13 05:07:10;;;;;;;11.03;3.53;;;;;;;11.57;77.86;101860.97;5054148;28;20025;-35
2022/05/13 05:09:36;;;;;;;9.97;3.63;;;;;;;11.47;78.26;101855.16;5053777;28;20021;-34
2022/05/13 05:12:02;;;;;;;9.85;3.20;;;;;;;11.55;78.22;101863.88;5054373;28;20053;-34
2022/05/13 05:14:27;;;;;;;8.40;3.22;;;;;;;11.56;78.50;101870.13;5054044;28;20045;-34
2022/05/13 05:16:53;;;;;;;9.83;3.10;;;;;;;11.56;78.67;101865.53;5054092;28;20033;-34
2022/05/13 05:19:18;;;;;;;13.07;3.80;;;;;;;11.60;78.23;101872.19;5053386;28;20469;-34
2022/05/13 05:21:44;;;;;;;9.60;3.67;;;;;;;11.62;77.74;101865.75;5054076;28;20154;-34
2022/05/13 05:24:10;;;;;;;8.90;3.00;;;;;;;11.60;78.43;101880.31;5053388;28;20033;-34
2022/05/13 05:26:36;;;;;;;13.30;3.70;;;;;;;11.62;78.39;101880.13;5053143;28;20040;-34
2022/05/13 05:29:02;;;;;;;11.13;3.67;;;;;;;11.55;78.64;101888.25;5053081;28;20025;-34
2022/05/13 05:31:27;;;;;;;9.85;3.50;;;;;;;11.60;78.23;101883.03;5053247;28;20021;-34
2022/05/13 05:33:53;;;;;;;13.20;4.00;;;;;;;11.66;78.30;101889.47;5052944;28;20550;-35
2022/05/13 05:36:19;;;;;;;9.97;3.50;;;;;;;11.69;78.22;101890.94;5052256;28;20048;-34
2022/05/13 05:38:44;;;;;;;12.63;2.83;;;;;;;11.73;78.25;101898.41;5053295;28;20029;-35
2022/05/13 05:41:09;;;;;;;10.87;3.33;;;;;;;11.78;78.06;101895.91;5053297;28;20032;-35
2022/05/13 05:43:35;;;;;;;10.10;3.45;;;;;;;11.91;77.76;101905.91;5053047;28;20064;-34
2022/05/13 05:46:02;;;;;;;12.55;3.33;;;;;;;11.96;77.66;101906.09;5053565;28;20032;-35
2022/05/13 05:48:27;;;;;;;;;;;;;;;12.10;76.47;101910.44;5053441;28;20029;-34
2022/05/13 05:50:56;;;;;;;9.77;3.53;;;;;;;12.01;78.00;101906.28;5053143;28;19919;-35
2022/05/13 05:58:57;;;;;;;11.82;3.30;;;;;;;12.19;77.70;101923.72;5052645;28;20515;-34
2022/05/13 06:01:22;;;;;;;10.43;3.83;;;;;;;12.09;77.88;101906.03;5053227;28;20116;-34
2022/05/13 06:03:48;;;;;;;10.90;3.50;;;;;;;12.27;77.66;101927.03;5052511;28;20120;-34
2022/05/13 06:06:13;;;;;;;12.77;3.43;;;;;;;12.26;77.62;101919.13;5053217;28;20029;-34
2022/05/13 06:08:40;;;;;;;9.97;3.80;;;;;;;12.37;77.31;101932.81;5052732;28;20454;-34
2022/05/13 06:11:06;;;;;;;12.38;4.18;;;;;;;12.44;77.06;101915.66;5052790;28;20752;-34
2022/05/13 06:13:31;;;;;;;;;;;;;;;12.56;76.84;101936.47;5054222;28;20057;-34
2022/05/13 06:15:57;;;;;;;10.30;3.70;;;;;;;12.47;77.26;101920.66;5053105;28;19917;-34
2022/05/13 06:18:22;;;;;;;10.20;3.20;;;;;;;12.57;77.03;101938.13;5052587;28;20108;-34
2022/05/13 06:20:48;;;;;;;12.10;4.20;;;;;;;12.59;76.87;101941.47;5052921;28;20263;-34
2022/05/13 06:23:13;;;;;;;12.27;4.55;;;;;;;12.61;76.92;101938.53;5052509;28;20271;-34
2022/05/13 06:25:39;;;;;;;10.97;4.07;;;;;;;12.72;76.92;101945.97;5052863;28;20454;-34
2022/05/13 06:28:06;;;;;;;9.00;3.90;;;;;;;12.75;76.59;101942.00;5052670;28;20025;-34
2022/05/13 06:30:34;;;;;;;11.00;4.15;;;;;;;12.75;76.63;101928.44;5052728;28;20029;-35
2022/05/13 06:33:01;;;;;;;12.27;4.72;;;;;;;12.92;76.49;101945.00;5052124;28;20021;-34
2022/05/13 06:35:28;;;;;;;22.33;5.07;;;;;;;12.90;76.73;101942.53;5052493;28;20033;-35
2022/05/13 06:37:54;;;;;;;11.90;4.18;;;;;;;12.93;76.30;101942.06;5052167;28;20032;-34
2022/05/13 06:40:22;;;;;;;12.20;4.28;;;;;;;13.07;76.23;101953.66;5052546;28;20032;-34
2022/05/13 06:42:49;;;;;;;13.93;4.55;;;;;;;13.05;76.16;101953.91;5052339;28;20033;-35
2022/05/13 06:45:14;;;;;;;11.13;4.13;;;;;;;13.08;76.27;101944.50;5052623;28;20080;-35
2022/05/13 06:47:40;;;;;;;10.38;4.15;;;;;;;13.24;76.25;101956.72;5052459;28;20053;-35
2022/05/13 06:50:08;;;;;;;15.30;4.68;;;;;;;13.36;75.98;101958.47;5052253;28;20104;-35
2022/05/13 06:52:34;;;;;;;10.98;4.13;;;;;;;13.43;75.56;101955.72;5052982;28;20032;-35
2022/05/13 06:54:59;;;;;;;12.70;4.60;;;;;;;13.48;75.77;101953.16;5052240;28;20033;-35
2022/05/13 06:57:24;;;;;;;11.50;4.03;;;;;;;13.53;75.15;101956.03;5052064;28;20091;-34
2022/05/13 06:59:50;;;;;;;12.00;5.32;;;;;;;13.56;75.08;101961.00;5052218;28;20461;-35
2022/05/13 07:02:19;;;;;;;11.57;4.00;;;;;;;13.55;75.15;101951.19;5052211;28;20036;-35
2022/05/13 07:04:45;;;;;;;10.07;4.18;;;;;;;13.59;74.93;101962.47;5051908;28;20493;-35
2022/05/13 07:07:12;;;;;;;12.68;3.90;;;;;;;13.62;74.97;101960.13;5052427;28;20477;-35
2022/05/13 07:09:38;;;;;;;13.63;4.68;;;;;;;13.68;74.86;101954.84;5053186;28;20080;-35
2022/05/13 07:12:04;;;;;;;;;;;;;;;13.79;74.26;101956.81;5056441;28;20041;-35
2022/05/13 07:14:29;;;;;;;11.80;4.32;;;;;;;13.77;74.16;101954.34;5056450;28;19935;-35
2022/05/13 07:16:56;;;;;;;12.23;4.10;;;;;;;13.86;74.11;101957.59;5056733;28;20064;-35
2022/05/13 07:19:22;;;;;;;10.90;3.78;;;;;;;13.97;73.88;101943.25;5056285;28;20359;-35
2022/05/13 07:21:47;;;;;;;7.47;3.58;;;;;;;14.05;72.78;101937.47;5055887;28;20098;-35
2022/05/13 07:24:13;;;;;;;8.52;3.83;;;;;;;14.24;72.48;101949.19;5056249;28;20025;-35
2022/05/13 07:26:38;;;;;;;9.93;4.07;;;;;;;14.24;72.29;101938.28;5056524;28;20029;-35
2022/05/13 07:29:05;;;;;;;8.88;3.70;;;;;;;14.38;71.85;101938.97;5055747;28;20036;-35
2022/05/13 07:31:30;;;;;;;13.00;3.90;;;;;;;14.48;70.96;101952.03;5056125;28;20025;-36
2022/05/13 07:33:55;;;;;;;;;;;;;;;14.58;70.67;101953.16;5056089;28;20048;-35
2022/05/13 07:36:21;;;;;;;9.77;3.00;;;;;;;14.50;70.28;101947.22;5056194;28;19920;-35
2022/05/13 07:41:30;;;;;;;9.52;3.67;;;;;;;14.65;70.09;101964.78;5055713;28;20059;-35
2022/05/13 07:43:55;;;;;;;;;;;;;;;14.75;69.71;101966.13;5055867;28;20033;-35
2022/05/13 07:46:20;;;;;;;10.67;3.10;;;;;;;14.72;69.65;101966.59;5056176;28;19946;-35
2022/05/13 07:48:46;;;;;;;7.83;3.13;;;;;;;14.89;70.13;101970.31;5055387;28;20315;-35
2022/05/13 07:51:11;;;;;;;8.83;3.10;;;;;;;14.88;68.63;101955.03;5055726;28;20107;-35
2022/05/13 07:53:37;;;;;;;9.38;3.00;;;;;;;14.95;68.27;101974.84;5055692;28;20625;-35
2022/05/13 07:56:03;;;;;;;8.10;2.70;;;;;;;14.86;68.18;101960.72;5055132;28;20435;-35
2022/05/13 07:58:29;;;;;;;;;;;;;;;15.03;68.40;101966.34;5055905;28;20028;-35
2022/05/13 08:00:55;;;;;;;7.82;2.50;;;;;;;14.88;68.67;101968.63;5055222;28;20019;-35
2022/05/13 08:03:21;;;;;;;6.35;2.60;;;;;;;14.74;68.81;101969.91;5055086;28;20412;-35
2022/05/13 08:05:50;;;;;;;;;;;;;;;14.82;68.63;101977.75;5056279;28;20025;-35
2022/05/13 08:08:19;;;;;;;7.10;2.55;;;;;;;14.65;69.64;101983.03;5054647;28;20358;-35
2022/05/13 08:10:49;;;;;;;9.93;2.90;;;;;;;14.53;69.59;101982.94;5055665;28;20035;-35
2022/05/13 08:13:15;;;;;;;12.35;2.75;;;;;;;14.41;69.72;101987.50;5055652;28;20540;-35
2022/05/13 08:15:41;;;;;;;8.07;2.55;;;;;;;14.41;70.01;101987.50;5054853;28;20025;-35
2022/05/13 08:18:07;;;;;;;;;;;;;;;14.51;68.99;101979.63;5054984;28;20040;-35
2022/05/13 08:20:33;;;;;;;8.85;2.63;;;;;;;14.50;69.56;101988.88;5054757;28;19913;-35
2022/05/13 08:22:59;;;;;;;11.52;2.85;;;;;;;14.58;69.50;101987.72;5054787;28;20029;-35
2022/05/13 08:25:25;;;;;;;9.50;2.83;;;;;;;14.63;67.99;101991.41;5054502;28;20540;-35
2022/05/13 08:27:51;;;;;;;;;;;;;;;14.73;68.16;101992.75;5054778;28;20104;-35
2022/05/13 08:30:17;;;;;;;9.45;2.38;;;;;;;14.62;68.03;101978.03;5054816;28;19920;-35
2022/05/13 08:32:43;;;;;;;11.15;2.60;;;;;;;14.78;68.70;101995.59;5054133;28;20032;-35
2022/05/13 08:35:09;;;;;;;;;;;;;;;14.98;68.18;101992.59;5054973;28;20037;-35
2022/05/13 08:37:49;;;;;;;8.07;1.83;;;;;;;15.01;67.29;101998.41;5054433;28;19978;-35
2022/05/13 08:40:25;;;;;;;8.90;3.05;;;;;;;14.98;67.35;101990.69;5054649;28;20059;-35
2022/05/13 08:42:51;;;;;;;12.00;3.17;;;;;;;14.91;66.55;102004.41;5054581;28;20534;-35
2022/05/13 08:45:18;;;;;;;;;;;;;;;15.00;66.55;102006.81;5054630;28;20025;-35
2022/05/13 08:47:58;;;;;;;11.85;3.20;;;;;;;14.84;66.72;102002.88;5054690;28;20296;-35
2022/05/13 08:50:23;;;;;;;11.95;2.80;;;;;;;14.77;67.12;102000.22;5054704;28;20326;-35
2022/05/13 08:53:06;;;;;;;;;;;;;;;14.81;66.26;102012.31;5054228;28;20033;-35
2022/05/13 08:56:01;;;;;;;6.93;2.40;;;;;;;14.60;66.36;102010.09;5054392;28;19954;-35
2022/05/13 08:58:51;;;;;;;7.20;2.58;;;;;;;14.61;66.75;102009.03;5032126;28;20045;-35
2022/05/13 09:01:27;;;;;;;10.23;2.08;;;;;;;14.62;67.09;102007.97;5031865;28;20043;-35
2022/05/13 09:03:59;;;;;;;8.02;2.35;;;;;;;14.71;66.40;102008.50;5031792;28;20465;-34
2022/05/13 09:06:47;;;;;;;8.93;2.15;;;;;;;15.05;66.24;102010.50;5032261;28;20413;-34
2022/05/13 09:09:13;;;;;;;7.78;2.55;;;;;;;15.24;64.75;101999.53;4992422;28;20057;-34
2022/05/13 09:11:42;;;;;;;;;;;;;;;15.48;64.37;102008.59;4992849;28;20479;-34
2022/05/13 09:14:25;;;;;;;7.65;2.20;;;;;;;15.80;62.92;102006.38;4992425;28;20319;-35
2022/05/13 09:17:00;;;;;;;5.63;1.60;;;;;;;16.02;61.78;102001.16;4992185;28;20042;-35
2022/05/13 09:19:52;;;;;;;6.40;2.00;;;;;;;16.23;61.61;102000.50;4992028;28;20030;-35
2022/05/13 09:22:18;;;;;;;6.22;1.88;;;;;;;16.26;59.84;102010.13;4991861;28;20134;-35
2022/05/13 09:24:45;;;;;;;;;;;;;;;16.39;60.69;102010.66;4992176;28;20038;-35
2022/05/13 09:27:11;;;;;;;7.30;1.70;;;;;;;16.48;59.96;102011.13;4992348;28;19952;-35
2022/05/13 09:29:43;;;;;;;9.15;2.00;;;;;;;16.60;59.52;102005.63;4990130;28;20465;-34
2022/05/13 09:32:34;;;;;;;6.22;1.73;;;;;;;16.93;57.80;102013.09;4985114;28;20034;-35
2022/05/13 09:35:29;;;;;;;6.13;1.50;;;;;;;17.12;57.07;102014.56;4987487;28;20044;-35
2022/05/13 09:37:55;;;;;;;8.48;1.85;;;;;;;17.18;54.95;102013.59;5031241;28;20060;-35
2022/05/13 09:40:26;;;;;;;6.90;1.70;;;;;;;17.43;55.06;102006.91;5030696;28;20046;-35
2022/05/13 09:42:55;;;;;;;6.45;1.60;;;;;;;17.31;53.56;102020.63;5031211;28;20029;-35
2022/05/13 09:45:33;;;;;;;10.15;1.65;;;;;;;17.21;53.83;102031.38;5043433;28;20045;-35
2022/05/13 09:48:01;;;;;;;5.70;1.63;;;;;;;17.25;53.34;102016.97;5053597;28;20021;-35
2022/05/13 09:50:33;;;;;;;8.35;1.75;;;;;;;17.64;53.09;102017.06;5053394;28;20025;-35
2022/05/13 09:53:20;;;;;;;6.18;1.40;;;;;;;17.90;52.22;102014.75;5051751;28;20029;-35
2022/05/13 09:55:46;;;;;;;;;;;;;;;18.12;50.34;102014.78;5065502;28;20465;-36
2022/05/13 09:58:29;;;;;;;4.20;1.20;;;;;;;18.06;48.94;102024.84;5064656;28;19923;-36
2022/05/13 10:01:02;;;;;;;4.47;1.30;;;;;;;18.06;47.89;102024.84;5056762;28;20060;-36
2022/05/13 10:03:33;;;;;;;3.97;1.20;;;;;;;18.13;48.04;102000.84;5052985;28;20420;-36
2022/05/13 10:06:16;;;;;;;5.72;1.52;;;;;;;18.37;47.90;102017.03;5053424;28;20025;-36
2022/05/13 10:14:36;;;;;;;3.20;1.10;;;;;;;18.01;48.87;102016.56;5039552;28;20106;-36
2022/05/13 10:17:04;;;;;;;4.95;1.08;;;;;;;17.82;48.87;102018.75;5052061;28;20029;-36
2022/05/13 10:19:45;;;;;;;6.85;1.60;;;;;;;17.71;49.82;102015.00;5052554;28;20420;-36
2022/05/13 10:22:18;;;;;;;3.90;1.02;;;;;;;17.74;49.65;102016.44;5053122;28;20120;-36
2022/05/13 10:24:50;;;;;;;4.53;1.30;;;;;;;17.66;49.85;102016.81;5052841;28;20025;-36
2022/05/13 10:27:24;;;;;;;4.07;1.40;;;;;;;17.53;49.73;102012.53;5052426;28;20052;-36
2022/05/13 10:29:54;;;;;;;2.78;0.98;;;;;;;17.47;50.65;102021.69;5061286;28;20029;-36
2022/05/13 10:32:24;;;;;;;6.97;1.35;;;;;;;17.35;51.02;102007.28;5072483;28;20028;-36
2022/05/13 10:34:54;;;;;;;4.78;1.60;;;;;;;17.43;50.53;102021.38;5071575;28;20032;-36
2022/05/13 10:37:28;;;;;;;4.93;1.63;;;;;;;17.44;50.53;102016.75;5065990;28;20036;-36
2022/05/13 10:39:59;;;;;;;4.80;1.40;;;;;;;17.33;50.36;102015.75;5072658;28;20040;-36
2022/05/13 10:42:40;;;;;;;5.95;1.55;;;;;;;17.34;51.12;102022.06;5073131;28;20024;-35
2022/05/13 10:45:21;;;;;;;6.25;1.40;;;;;;;17.24;49.82;102001.66;5075896;28;20472;-36
2022/05/13 10:47:50;;;;;;;5.55;1.17;;;;;;;17.42;49.55;102024.34;5077069;28;20028;-36
2022/05/13 10:50:23;;;;;;;6.22;1.50;;;;;;;17.59;48.89;102017.00;5076486;28;20032;-36
2022/05/13 10:53:01;;;;;;;4.97;1.55;;;;;;;17.72;50.28;102022.13;5076857;28;20028;-36
2022/05/13 10:55:51;;;;;;;4.57;1.40;;;;;;;17.75;49.69;102024.38;5076678;28;20358;-36
2022/05/13 10:58:41;;;;;;;5.25;1.27;;;;;;;17.84;49.91;102026.69;5076080;28;20028;-36
2022/05/13 11:01:28;;;;;;;5.10;1.40;;;;;;;17.88;49.94;102030.59;5076586;28;20111;-36
2022/05/13 11:03:59;;;;;;;;;;;;;;;18.05;49.68;102028.63;5076966;28;20043;-36
2022/05/13 11:06:34;;;;;;;7.38;1.30;;;;;;;18.15;48.96;102017.81;5075960;28;20027;-36
2022/05/13 11:09:21;;;;;;;4.30;1.20;;;;;;;18.30;47.70;101995.31;5076206;28;20035;-36
2022/05/13 11:11:46;;;;;;;2.10;0.90;;;;;;;18.28;46.21;102011.97;5076005;28;20469;-36
2022/05/13 11:14:11;;;;;;;;;;;;;;;18.48;47.06;102021.53;5076455;28;20047;-36
2022/05/13 11:16:54;;;;;;;3.60;0.90;;;;;;;18.35;45.45;102027.38;5076318;28;19970;-36
2022/05/13 11:19:47;;;;;;;5.20;0.93;;;;;;;18.51;45.77;102029.25;5075357;28;20364;-36
2022/05/13 11:22:25;;;;;;;4.68;1.10;;;;;;;18.44;45.97;102023.13;5075854;28;20041;-36
2022/05/13 11:28:09;;;;;;;5.82;1.48;;;;;;;18.69;45.06;102020.75;5076063;28;20105;-36
2022/05/13 11:30:49;;;;;;;3.22;1.10;;;;;;;18.62;44.60;102003.63;5075745;28;20033;-36
2022/05/13 11:33:21;;;;;;;3.35;0.82;;;;;;;18.64;44.90;102009.69;5075899;28;20377;-36
2022/05/13 11:36:24;;;;;;;3.88;1.27;;;;;;;18.61;46.14;102015.69;5075722;28;20025;-36
2022/05/13 11:39:10;;;;;;;4.72;1.10;;;;;;;18.44;46.80;102002.03;5075509;28;20028;-36
2022/05/13 11:42:08;;;;;;;7.07;1.50;;;;;;;18.57;46.92;102008.22;5076033;28;20043;-36
2022/05/13 11:44:49;;;;;;;2.65;0.82;;;;;;;18.42;46.67;102006.97;5075768;28;20029;-36
2022/05/13 11:47:23;;;;;;;4.20;1.33;;;;;;;18.44;46.69;102009.44;5075681;28;20036;-36
2022/05/13 11:49:49;;;;;;;4.93;1.13;;;;;;;18.55;46.25;102011.22;5076153;28;20028;-36
2022/05/13 11:52:14;;;;;;;4.13;1.00;;;;;;;18.96;46.10;102012.53;5075581;28;20369;-36
2022/05/13 11:54:42;;;;;;;4.17;1.30;;;;;;;19.16;43.89;102011.88;5074977;28;20098;-36
2022/05/13 11:57:16;;;;;;;6.70;1.30;;;;;;;19.56;43.83;102008.66;5075299;28;20678;-36
2022/05/13 11:59:47;;;;;;;5.65;1.13;;;;;;;19.63;42.79;102011.22;5075478;28;20036;-36
2022/05/13 12:02:14;;;;;;;6.72;1.30;;;;;;;19.75;42.26;102002.78;5075981;28;20365;-36
2022/05/13 12:05:10;;;;;;;3.97;1.15;;;;;;;19.78;43.13;102000.34;5074772;28;20436;-34
2022/05/13 12:07:51;;;;;;;5.40;1.55;;;;;;;19.71;44.38;102002.47;5074806;28;20078;-35
2022/05/13 12:10:18;;;;;;;7.25;1.42;;;;;;;19.68;43.86;101997.53;5075424;28;20040;-35
2022/05/13 12:13:10;;;;;;;3.03;1.10;;;;;;;19.70;44.52;101992.59;5075438;28;20048;-35
2022/05/13 12:15:53;;;;;;;6.28;1.30;;;;;;;19.58;44.09;101997.44;5075446;28;20036;-35
2022/05/13 12:18:47;;;;;;;3.78;1.33;;;;;;;19.54;45.17;102019.06;5074929;28;20032;-35